Time;durP1;ratioP1;P1;durP2;ratioP2;P2;SDS_P1;SDS_P2;PMS_P1;PMS_P2;Temp;Humidity;BMP_temperature;BMP_pressure;BME280_temperature;BME280_humidity;BME280_pressure;Samples;Min_cycle;Max_cycle;Signal;HPM_P1;HPM_P2
2023/04/29 00:00:16;;;;;;;1.80;1.13;;;;;;;;;;5056532;28;20532;-72
2023/04/29 00:03:20;;;;;;;1.60;0.80;;;;;;;;;;5056463;28;20220;-72
2023/04/29 00:06:24;;;;;;;1.13;0.90;;;;;;;;;;5056199;28;20195;-71
2023/04/29 00:09:28;;;;;;;1.10;0.90;;;;;;;;;;5032891;28;20630;-72
2023/04/29 00:12:33;;;;;;;0.80;0.80;;;;;;;;;;5056273;28;20216;-72
2023/04/29 00:15:39;;;;;;;0.70;0.70;;;;;;;;;;5056429;28;20176;-72
2023/04/29 00:18:43;;;;;;;1.00;0.80;;;;;;;;;;5056283;28;20643;-71
2023/04/29 00:21:46;;;;;;;1.73;0.70;;;;;;;;;;5043496;28;20220;-72
2023/04/29 00:24:52;;;;;;;1.70;0.80;;;;;;;;;;5056205;28;20176;-72
2023/04/29 00:28:00;;;;;;;0.93;0.60;;;;;;;;;;5043560;28;20176;-72
2023/04/29 00:31:04;;;;;;;2.10;0.90;;;;;;;;;;5056377;28;20211;-72
2023/04/29 00:34:09;;;;;;;0.83;0.63;;;;;;;;;;5043828;28;20176;-72
2023/04/29 00:37:13;;;;;;;0.73;0.70;;;;;;;;;;5043974;28;20631;-72
2023/04/29 00:40:18;;;;;;;0.87;0.80;;;;;;;;;;5043909;28;20176;-72
2023/04/29 00:43:22;;;;;;;0.80;0.70;;;;;;;;;;5032100;28;20207;-72
2023/04/29 00:46:26;;;;;;;0.90;0.70;;;;;;;;;;5032230;28;20172;-71
2023/04/29 00:49:30;;;;;;;2.70;0.67;;;;;;;;;;5054374;28;20200;-72
2023/04/29 00:52:36;;;;;;;1.43;0.70;;;;;;;;;;5043470;28;20215;-72
2023/04/29 00:55:42;;;;;;;1.10;0.80;;;;;;;;;;5043376;28;20516;-72
2023/04/29 00:58:51;;;;;;;1.43;0.70;;;;;;;;;;5031508;28;20204;-72
2023/04/29 01:01:55;;;;;;;1.00;0.87;;;;;;;;;;5031403;28;20215;-71
2023/04/29 01:04:59;;;;;;;2.73;0.80;;;;;;;;;;5043193;28;20176;-72
2023/04/29 01:08:22;;;;;;;3.33;0.87;;;;;;;;;;5042827;28;20180;-72
2023/04/29 01:11:33;;;;;;;2.17;0.70;;;;;;;;;;5043186;28;20548;-72
2023/04/29 01:14:38;;;;;;;1.63;0.80;;;;;;;;;;5055121;28;20176;-71
2023/04/29 01:18:10;;;;;;;0.70;0.70;;;;;;;;;;5043229;28;20331;-71
2023/04/29 01:21:15;;;;;;;1.33;0.63;;;;;;;;;;5043003;28;20215;-72
2023/04/29 01:24:19;;;;;;;0.80;0.70;;;;;;;;;;5042710;28;20536;-72
2023/04/29 01:27:34;;;;;;;1.33;0.60;;;;;;;;;;5031514;28;20180;-72
2023/04/29 01:31:07;;;;;;;0.80;0.60;;;;;;;;;;5042254;28;20524;-72
2023/04/29 01:34:21;;;;;;;2.87;0.93;;;;;;;;;;5031221;28;20516;-72
2023/04/29 01:37:37;;;;;;;3.53;0.90;;;;;;;;;;5042381;28;20639;-71
2023/04/29 01:40:55;;;;;;;1.53;0.67;;;;;;;;;;5031361;28;20509;-72
2023/04/29 01:44:03;;;;;;;1.73;0.80;;;;;;;;;;5030731;28;20216;-72
2023/04/29 01:47:12;;;;;;;1.80;0.80;;;;;;;;;;5042127;28;20199;-72
2023/04/29 01:50:20;;;;;;;0.93;0.83;;;;;;;;;;5020323;28;20639;-71
2023/04/29 01:53:24;;;;;;;3.20;0.80;;;;;;;;;;5042245;28;20184;-71
2023/04/29 01:56:30;;;;;;;4.87;1.23;;;;;;;;;;5030773;28;20169;-72
2023/04/29 01:59:57;;;;;;;1.00;0.90;;;;;;;;;;5050837;28;20523;-70
2023/04/29 02:03:24;;;;;;;2.43;0.80;;;;;;;;;;5041762;28;20679;-71
2023/04/29 02:06:32;;;;;;;2.73;0.90;;;;;;;;;;5042388;28;20627;-72
2023/04/29 02:09:39;;;;;;;1.60;1.10;;;;;;;;;;5041888;28;20204;-71
2023/04/29 02:12:47;;;;;;;1.97;0.87;;;;;;;;;;5041522;28;20212;-72
2023/04/29 02:15:52;;;;;;;5.20;1.27;;;;;;;;;;5042019;28;20180;-71
2023/04/29 02:18:56;;;;;;;1.77;1.10;;;;;;;;;;5041752;28;20183;-72
2023/04/29 02:22:01;;;;;;;1.30;1.07;;;;;;;;;;5041576;28;20216;-71
2023/04/29 02:25:06;;;;;;;2.23;1.40;;;;;;;;;;5041662;28;20173;-72
2023/04/29 02:28:10;;;;;;;2.10;1.20;;;;;;;;;;5041707;28;20180;-71
2023/04/29 02:31:17;;;;;;;6.00;1.30;;;;;;;;;;5041469;28;20678;-71
2023/04/29 02:34:25;;;;;;;1.93;1.50;;;;;;;;;;5053812;28;20181;-71
2023/04/29 02:37:31;;;;;;;1.20;1.10;;;;;;;;;;5053997;28;20184;-72
2023/04/29 02:40:44;;;;;;;1.23;1.13;;;;;;;;;;5041682;28;20184;-72
2023/04/29 02:43:48;;;;;;;1.50;1.30;;;;;;;;;;5041108;28;20220;-72
2023/04/29 02:46:52;;;;;;;1.63;1.53;;;;;;;;;;5041083;28;20184;-72
2023/04/29 02:50:15;;;;;;;1.63;1.23;;;;;;;;;;5053526;28;20623;-72
2023/04/29 02:53:37;;;;;;;2.30;1.90;;;;;;;;;;5043893;28;20176;-72
2023/04/29 02:56:42;;;;;;;1.70;1.60;;;;;;;;;;5029898;28;20176;-72
2023/04/29 02:59:46;;;;;;;2.10;1.70;;;;;;;;;;5029593;28;20184;-72
2023/04/29 03:02:51;;;;;;;2.23;1.80;;;;;;;;;;5029631;28;20227;-72
2023/04/29 03:05:54;;;;;;;2.50;1.70;;;;;;;;;;5041031;28;20180;-72
2023/04/29 03:08:58;;;;;;;4.47;2.07;;;;;;;;;;5041282;28;20176;-71
2023/04/29 03:12:02;;;;;;;3.13;1.90;;;;;;;;;;5040564;28;20216;-72
2023/04/29 03:15:09;;;;;;;2.97;1.80;;;;;;;;;;5029928;28;20184;-72
2023/04/29 03:18:13;;;;;;;2.73;1.87;;;;;;;;;;5040965;28;20180;-71
2023/04/29 03:21:17;;;;;;;4.70;2.00;;;;;;;;;;5040827;28;20551;-71
2023/04/29 03:24:21;;;;;;;3.77;2.13;;;;;;;;;;5041063;28;20200;-71
2023/04/29 03:27:25;;;;;;;3.53;2.20;;;;;;;;;;5040503;28;20199;-71
2023/04/29 03:30:29;;;;;;;3.37;2.60;;;;;;;;;;5029473;28;20200;-71
2023/04/29 03:33:35;;;;;;;3.63;2.53;;;;;;;;;;5040766;28;20196;-71
2023/04/29 03:36:39;;;;;;;4.87;2.43;;;;;;;;;;5040473;28;20195;-71
2023/04/29 03:39:45;;;;;;;4.60;2.90;;;;;;;;;;5040742;28;20180;-71
2023/04/29 03:42:50;;;;;;;3.43;2.67;;;;;;;;;;5040470;28;20212;-72
2023/04/29 03:45:56;;;;;;;4.07;3.07;;;;;;;;;;5040410;28;20184;-71
2023/04/29 03:49:01;;;;;;;5.20;2.73;;;;;;;;;;5040476;28;20203;-71
2023/04/29 03:52:05;;;;;;;3.63;3.10;;;;;;;;;;5040526;28;20212;-71
2023/04/29 03:55:10;;;;;;;3.50;3.20;;;;;;;;;;5040878;28;20176;-71
2023/04/29 03:58:14;;;;;;;3.93;3.40;;;;;;;;;;5040316;28;20180;-71
2023/04/29 04:01:20;;;;;;;4.87;3.40;;;;;;;;;;5029504;28;20568;-71
2023/04/29 04:04:25;;;;;;;4.13;3.73;;;;;;;;;;5028812;28;20224;-71
2023/04/29 04:07:29;;;;;;;4.00;3.40;;;;;;;;;;5029172;28;20524;-71
2023/04/29 04:10:51;;;;;;;5.93;3.87;;;;;;;;;;5043049;28;20184;-71
2023/04/29 04:14:10;;;;;;;3.77;3.33;;;;;;;;;;5028777;28;20525;-71
2023/04/29 04:17:14;;;;;;;6.03;3.90;;;;;;;;;;5029063;28;20180;-72
2023/04/29 04:20:19;;;;;;;5.87;3.33;;;;;;;;;;5040286;28;20176;-72
2023/04/29 04:23:25;;;;;;;4.77;3.73;;;;;;;;;;5041385;28;20219;-70
2023/04/29 04:26:30;;;;;;;5.63;4.07;;;;;;;;;;5043872;28;20195;-70
2023/04/29 04:29:37;;;;;;;5.37;3.83;;;;;;;;;;5043793;28;20643;-70
2023/04/29 04:32:47;;;;;;;6.07;3.63;;;;;;;;;;5043686;28;20211;-70
2023/04/29 04:35:51;;;;;;;5.57;3.77;;;;;;;;;;5043635;28;20168;-70
2023/04/29 04:38:55;;;;;;;4.63;3.30;;;;;;;;;;5043680;28;20184;-70
2023/04/29 04:42:01;;;;;;;4.07;3.60;;;;;;;;;;5043788;28;20220;-70
2023/04/29 04:45:10;;;;;;;4.43;3.60;;;;;;;;;;5032722;28;20207;-70
2023/04/29 04:48:28;;;;;;;4.03;3.40;;;;;;;;;;5046506;22;20666;31
2023/04/29 04:51:34;;;;;;;4.67;3.90;;;;;;;;;;4982542;28;20226;-73
2023/04/29 04:54:38;;;;;;;4.67;3.53;;;;;;;;;;4995560;28;20174;-73
2023/04/29 04:57:53;;;;;;;5.50;3.63;;;;;;;;;;4995466;28;20186;-73
2023/04/29 05:00:57;;;;;;;4.50;3.63;;;;;;;;;;4984180;28;20226;-73
2023/04/29 05:04:02;;;;;;;6.23;3.57;;;;;;;;;;4996172;28;20206;-73
2023/04/29 05:07:07;;;;;;;6.80;3.87;;;;;;;;;;4995045;28;20186;-73
2023/04/29 05:10:32;;;;;;;4.07;3.43;;;;;;;;;;4983793;28;20530;-73
2023/04/29 05:13:38;;;;;;;16.30;10.60;;;;;;;;;;4984178;28;20175;-73
2023/04/29 05:16:44;;;;;;;6.70;4.67;;;;;;;;;;4994924;28;20185;-72
2023/04/29 05:19:48;;;;;;;4.00;3.00;;;;;;;;;;4996127;28;20182;-73
2023/04/29 05:22:52;;;;;;;11.47;3.70;;;;;;;;;;4983722;28;20221;-73
2023/04/29 05:25:57;;;;;;;3.97;3.57;;;;;;;;;;4983781;28;20194;-73
2023/04/29 05:29:01;;;;;;;6.53;3.60;;;;;;;;;;4983652;28;20186;-73
2023/04/29 05:32:08;;;;;;;5.77;3.70;;;;;;;;;;4994824;28;20214;-73
2023/04/29 05:35:12;;;;;;;3.57;3.23;;;;;;;;;;4982813;28;20194;-74
2023/04/29 05:38:16;;;;;;;3.97;3.20;;;;;;;;;;4972281;28;20186;-73
2023/04/29 05:41:27;;;;;;;3.00;2.70;;;;;;;;;;4995361;28;20218;-73
2023/04/29 05:44:50;;;;;;;2.67;2.43;;;;;;;;;;4983416;28;20214;-73
2023/04/29 05:47:54;;;;;;;3.57;2.33;;;;;;;;;;4983545;28;20202;-73
2023/04/29 05:50:59;;;;;;;3.23;2.23;;;;;;;;;;4994547;28;20677;-73
2023/04/29 05:54:05;;;;;;;2.90;2.60;;;;;;;;;;4983368;28;20217;-73
2023/04/29 05:57:09;;;;;;;2.70;2.50;;;;;;;;;;4982998;28;20526;-73
2023/04/29 06:00:13;;;;;;;2.77;2.57;;;;;;;;;;4994347;28;20179;-73
2023/04/29 06:03:17;;;;;;;3.23;2.70;;;;;;;;;;4972031;28;20182;-73
2023/04/29 06:06:21;;;;;;;4.10;2.50;;;;;;;;;;4983099;28;20179;-73
2023/04/29 06:09:46;;;;;;;2.63;2.43;;;;;;;;;;4994953;28;20657;-73
2023/04/29 06:12:50;;;;;;;4.93;2.37;;;;;;;;;;4982791;28;20214;-73
2023/04/29 06:15:54;;;;;;;3.83;2.50;;;;;;;;;;4982909;28;20190;-74
2023/04/29 06:19:00;;;;;;;15.43;11.67;;;;;;;;;;4983038;28;20174;-73
2023/04/29 06:22:05;;;;;;;7.90;6.20;;;;;;;;;;4982703;28;20225;-73
2023/04/29 06:25:10;;;;;;;4.77;3.43;;;;;;;;;;4982701;28;20546;-73
2023/04/29 06:28:23;;;;;;;6.20;4.50;;;;;;;;;;4993956;28;20178;-73
2023/04/29 06:31:27;;;;;;;6.97;4.63;;;;;;;;;;4994476;28;20247;-72
2023/04/29 06:34:38;;;;;;;4.23;3.70;;;;;;;;;;4982416;28;20190;-73
2023/04/29 06:38:03;;;;;;;3.87;3.47;;;;;;;;;;4982580;28;20526;-73
2023/04/29 06:41:20;;;;;;;4.80;4.30;;;;;;;;;;4972785;28;20214;-73
2023/04/29 06:44:39;;;;;;;4.70;3.90;;;;;;;;;;4984436;28;20206;-73
2023/04/29 06:48:09;;;;;;;4.60;4.20;;;;;;;;;;4979375;28;20598;-72
2023/04/29 06:51:23;;;;;;;4.73;3.70;;;;;;;;;;4981872;28;20218;-72
2023/04/29 06:54:28;;;;;;;5.20;4.60;;;;;;;;;;4971107;28;20613;-72
2023/04/29 06:57:32;;;;;;;4.80;4.30;;;;;;;;;;4981913;28;20178;-73
2023/04/29 07:00:36;;;;;;;4.57;4.10;;;;;;;;;;4982172;28;20186;-72
2023/04/29 07:03:42;;;;;;;7.57;4.27;;;;;;;;;;4993289;28;20637;-73
2023/04/29 07:06:47;;;;;;;4.83;3.93;;;;;;;;;;4970837;28;20514;-73
2023/04/29 07:09:52;;;;;;;3.87;3.50;;;;;;;;;;4971002;28;20201;-73
2023/04/29 07:12:59;;;;;;;6.57;3.93;;;;;;;;;;4993721;28;20561;-74
2023/04/29 07:16:03;;;;;;;4.03;3.63;;;;;;;;;;4982204;28;20174;-74
2023/04/29 07:19:07;;;;;;;4.47;4.00;;;;;;;;;;4993518;28;20198;-74
2023/04/29 07:22:11;;;;;;;6.43;4.00;;;;;;;;;;4992756;28;20213;-74
2023/04/29 07:25:15;;;;;;;6.70;4.07;;;;;;;;;;4982087;28;20218;-74
2023/04/29 07:28:19;;;;;;;4.57;4.17;;;;;;;;;;4981875;28;20202;-74
2023/04/29 07:31:23;;;;;;;4.90;3.90;;;;;;;;;;4970686;28;20222;-74
2023/04/29 07:34:27;;;;;;;4.93;4.37;;;;;;;;;;4981485;28;20178;-74
2023/04/29 07:37:31;;;;;;;5.00;4.50;;;;;;;;;;4992992;28;20174;-74
2023/04/29 07:40:35;;;;;;;4.00;3.70;;;;;;;;;;4993291;28;20190;-74
2023/04/29 07:43:40;;;;;;;4.70;4.27;;;;;;;;;;4981658;28;20186;-73
2023/04/29 07:46:45;;;;;;;5.33;4.30;;;;;;;;;;4982317;28;20174;-73
2023/04/29 07:49:51;;;;;;;4.73;3.80;;;;;;;;;;4992560;28;20201;-73
2023/04/29 07:52:56;;;;;;;4.80;4.37;;;;;;;;;;4993393;28;20225;-73
2023/04/29 07:56:05;;;;;;;5.20;3.60;;;;;;;;;;4992590;28;20179;-73
2023/04/29 07:59:09;;;;;;;6.87;3.73;;;;;;;;;;4984374;28;20186;-73
2023/04/29 08:02:15;;;;;;;5.50;3.63;;;;;;;;;;4985391;28;20217;-73
2023/04/29 08:05:20;;;;;;;4.07;3.30;;;;;;;;;;4985571;28;20214;-73
2023/04/29 08:08:24;;;;;;;3.23;2.93;;;;;;;;;;4985360;28;20186;-73
2023/04/29 08:11:29;;;;;;;5.27;2.87;;;;;;;;;;4996238;28;20217;-73
2023/04/29 08:14:33;;;;;;;7.17;2.30;;;;;;;;;;4984973;28;20178;-73
2023/04/29 08:17:38;;;;;;;2.80;2.60;;;;;;;;;;4984964;28;20182;-73
2023/04/29 08:20:42;;;;;;;3.43;2.80;;;;;;;;;;4985118;28;20657;-73
2023/04/29 08:23:46;;;;;;;2.40;2.20;;;;;;;;;;4996957;28;20201;-73
2023/04/29 08:26:51;;;;;;;3.70;2.63;;;;;;;;;;4984942;28;20511;-72
2023/04/29 08:29:55;;;;;;;3.37;2.37;;;;;;;;;;4997109;28;20182;-73
2023/04/29 08:32:59;;;;;;;4.73;2.30;;;;;;;;;;4984608;28;20226;-73
2023/04/29 08:36:07;;;;;;;4.37;2.70;;;;;;;;;;4996828;28;20514;-73
2023/04/29 08:39:11;;;;;;;5.00;2.20;;;;;;;;;;4995618;28;20199;-72
2023/04/29 08:42:19;;;;;;;3.47;2.10;;;;;;;;;;4996586;28;20223;-72
2023/04/29 08:45:26;;;;;;;2.20;1.90;;;;;;;;;;4996606;28;20215;-73
2023/04/29 08:48:30;;;;;;;2.67;1.70;;;;;;;;;;4984521;28;20186;-73
2023/04/29 08:51:35;;;;;;;1.50;1.40;;;;;;;;;;4996480;28;20554;-73
2023/04/29 08:54:40;;;;;;;2.92;1.75;;;;;;;;;;4996289;28;21212;-73
2023/04/29 08:57:45;;;;;;;2.50;1.70;;;;;;;;;;4996085;28;20188;-73
2023/04/29 09:00:50;;;;;;;3.10;1.97;;;;;;;;;;4996527;28;20183;-72
2023/04/29 09:04:08;;;;;;;1.83;1.47;;;;;;;;;;4995738;28;20185;-73
2023/04/29 09:07:12;;;;;;;2.53;1.70;;;;;;;;;;4984300;28;20181;-73
2023/04/29 09:10:17;;;;;;;1.53;1.43;;;;;;;;;;4994268;28;20204;-73
2023/04/29 09:13:26;;;;;;;2.50;1.20;;;;;;;;;;4996228;28;20180;-73
2023/04/29 09:16:30;;;;;;;2.47;1.10;;;;;;;;;;4983969;28;20182;-73
2023/04/29 09:19:35;;;;;;;2.15;1.40;;;;;;;;;;4995625;28;20616;-73
2023/04/29 09:22:50;;;;;;;4.90;1.30;;;;;;;;;;4972495;28;20215;-73
2023/04/29 09:25:56;;;;;;;1.20;1.10;;;;;;;;;;4984061;28;20213;-73
2023/04/29 09:29:17;;;;;;;2.30;1.20;;;;;;;;;;4995625;28;20182;-72
2023/04/29 09:32:21;;;;;;;2.20;1.23;;;;;;;;;;4995403;28;20220;-73
2023/04/29 09:35:27;;;;;;;2.20;1.20;;;;;;;;;;4995404;28;20184;-74
2023/04/29 09:38:30;;;;;;;2.13;1.10;;;;;;;;;;4995378;28;20185;-73
2023/04/29 09:41:34;;;;;;;1.58;1.10;;;;;;;;;;4994414;28;20225;-73
2023/04/29 09:44:41;;;;;;;1.73;1.30;;;;;;;;;;4995223;28;20186;-73
2023/04/29 09:47:45;;;;;;;1.67;1.23;;;;;;;;;;4995636;28;20222;-73
2023/04/29 09:51:03;;;;;;;3.70;1.40;;;;;;;;;;4994099;28;20207;-73
2023/04/29 09:54:20;;;;;;;2.13;1.20;;;;;;;;;;4995556;28;20636;-73
2023/04/29 09:57:38;;;;;;;0.98;0.93;;;;;;;;;;4995337;28;20181;-73
2023/04/29 10:00:43;;;;;;;1.83;1.10;;;;;;;;;;4994018;28;20184;-73
2023/04/29 10:03:48;;;;;;;2.70;1.23;;;;;;;;;;4994819;28;20672;-73
2023/04/29 10:06:53;;;;;;;0.85;0.70;;;;;;;;;;4994647;28;20223;-73
2023/04/29 10:09:58;;;;;;;1.63;0.70;;;;;;;;;;4994700;28;20537;-73
2023/04/29 10:13:02;;;;;;;1.95;0.90;;;;;;;;;;4994757;28;20203;-73
2023/04/29 10:16:25;;;;;;;1.27;0.77;;;;;;;;;;4994599;28;20196;-73
2023/04/29 10:19:51;;;;;;;1.85;0.90;;;;;;;;;;4994784;28;20185;-73
2023/04/29 10:22:58;;;;;;;3.67;0.80;;;;;;;;;;4994797;28;20229;-73
2023/04/29 10:26:04;;;;;;;9.57;0.93;;;;;;;;;;4994657;28;20203;-73
2023/04/29 10:29:10;;;;;;;2.42;0.82;;;;;;;;;;4971402;28;20658;-73
2023/04/29 10:32:15;;;;;;;2.75;0.70;;;;;;;;;;4982486;28;20219;-73
2023/04/29 10:35:23;;;;;;;4.00;0.73;;;;;;;;;;4982567;28;20180;-73
2023/04/29 10:38:33;;;;;;;2.63;1.17;;;;;;;;;;4982245;28;20542;-73
2023/04/29 10:41:46;;;;;;;1.52;0.88;;;;;;;;;;4994629;28;20692;-73
2023/04/29 10:45:21;;;;;;;3.33;1.47;;;;;;;;;;4994667;28;20611;-73
2023/04/29 10:48:25;;;;;;;6.00;2.50;;;;;;;;;;4971403;28;20525;-73
2023/04/29 10:51:41;;;;;;;4.90;2.07;;;;;;;;;;4993516;28;20704;-73
2023/04/29 10:55:01;;;;;;;2.47;2.20;;;;;;;;;;4994292;28;20182;-73
2023/04/29 10:58:25;;;;;;;3.30;2.13;;;;;;;;;;4971391;28;20186;-73
2023/04/29 11:01:47;;;;;;;2.00;1.80;;;;;;;;;;4993979;28;20217;-74
2023/04/29 11:05:08;;;;;;;3.80;1.70;;;;;;;;;;4994029;28;20182;-73
2023/04/29 11:08:22;;;;;;;1.93;1.77;;;;;;;;;;4971092;28;20182;-73
2023/04/29 11:11:43;;;;;;;2.53;1.50;;;;;;;;;;4993926;28;20218;-73
2023/04/29 11:14:50;;;;;;;1.60;1.50;;;;;;;;;;4993857;28;20190;-73
2023/04/29 11:17:58;;;;;;;3.67;1.83;;;;;;;;;;4982118;28;20179;-73
2023/04/29 11:21:05;;;;;;;3.27;1.90;;;;;;;;;;4994184;28;20213;-73
2023/04/29 11:24:11;;;;;;;4.83;1.40;;;;;;;;;;4994083;28;20178;-73
2023/04/29 11:27:17;;;;;;;3.10;1.30;;;;;;;;;;4982248;28;20210;-73
2023/04/29 11:30:21;;;;;;;1.80;0.97;;;;;;;;;;4981801;28;20249;-73
2023/04/29 11:33:26;;;;;;;1.10;0.90;;;;;;;;;;4995180;28;20199;-74
2023/04/29 11:36:31;;;;;;;1.03;0.93;;;;;;;;;;4997784;28;20199;-73
2023/04/29 11:39:35;;;;;;;1.70;1.20;;;;;;;;;;4997532;28;20632;-74
2023/04/29 11:42:42;;;;;;;2.80;1.00;;;;;;;;;;4997457;28;20216;-73
2023/04/29 11:45:47;;;;;;;1.77;1.20;;;;;;;;;;4985844;28;20554;-73
2023/04/29 11:48:51;;;;;;;1.53;1.10;;;;;;;;;;4985518;28;20200;-73
2023/04/29 11:51:54;;;;;;;2.20;1.40;;;;;;;;;;4997532;28;20689;-73
2023/04/29 11:54:59;;;;;;;2.20;2.00;;;;;;;;;;4997210;28;20187;-73
2023/04/29 11:58:03;;;;;;;2.23;2.00;;;;;;;;;;4985440;28;20178;-73
2023/04/29 12:01:08;;;;;;;4.33;2.30;;;;;;;;;;4997325;28;20218;-73
2023/04/29 12:04:12;;;;;;;3.43;1.90;;;;;;;;;;4997330;28;20183;-73
2023/04/29 12:07:16;;;;;;;2.90;1.73;;;;;;;;;;4997311;28;20202;-73
2023/04/29 12:10:20;;;;;;;1.50;1.40;;;;;;;;;;4997467;28;20182;-73
2023/04/29 12:13:28;;;;;;;2.57;1.40;;;;;;;;;;4997136;28;20661;-73
2023/04/29 12:16:32;;;;;;;1.53;1.43;;;;;;;;;;4985431;28;20198;-74
2023/04/29 12:19:38;;;;;;;3.27;1.60;;;;;;;;;;4985369;28;20633;-73
2023/04/29 12:22:42;;;;;;;1.80;1.30;;;;;;;;;;4996675;28;20220;-73
2023/04/29 12:25:55;;;;;;;4.33;1.90;;;;;;;;;;4995844;28;20210;-73
2023/04/29 12:29:00;;;;;;;3.50;1.97;;;;;;;;;;4996946;28;20630;-73
2023/04/29 12:32:05;;;;;;;1.97;1.60;;;;;;;;;;4984620;28;20217;-74
2023/04/29 12:35:16;;;;;;;1.97;1.77;;;;;;;;;;4996816;28;20183;-73
2023/04/29 12:38:22;;;;;;;4.70;1.70;;;;;;;;;;4996441;28;20190;-73
2023/04/29 12:41:58;;;;;;;4.00;1.50;;;;;;;;;;4996335;28;20214;-73
2023/04/29 12:45:05;;;;;;;1.30;1.17;;;;;;;;;;5002553;28;20522;-73
2023/04/29 12:48:10;;;;;;;3.17;1.50;;;;;;;;;;4984845;28;20178;-73
2023/04/29 12:51:15;;;;;;;2.83;1.20;;;;;;;;;;4995266;28;20681;-74
2023/04/29 12:54:19;;;;;;;2.60;1.40;;;;;;;;;;4996384;28;20613;-73
2023/04/29 12:57:25;;;;;;;1.77;1.20;;;;;;;;;;4996666;28;20178;-73
2023/04/29 13:00:29;;;;;;;1.63;1.30;;;;;;;;;;4996047;28;20197;-73
2023/04/29 13:03:34;;;;;;;7.57;4.23;;;;;;;;;;4995968;28;20182;-73
2023/04/29 13:06:39;;;;;;;11.67;6.47;;;;;;;;;;4983987;28;20235;-73
2023/04/29 13:09:44;;;;;;;4.87;4.37;;;;;;;;;;4996113;28;20204;-73
2023/04/29 13:12:48;;;;;;;2.93;1.40;;;;;;;;;;4995729;28;20546;-73
2023/04/29 13:15:53;;;;;;;2.63;1.27;;;;;;;;;;4996033;28;20183;-73
2023/04/29 13:18:57;;;;;;;14.23;9.10;;;;;;;;;;4995696;28;20186;-73
2023/04/29 13:22:01;;;;;;;2.93;2.43;;;;;;;;;;4995586;28;20218;-73
2023/04/29 13:25:06;;;;;;;3.77;3.00;;;;;;;;;;4995582;28;20182;-73
2023/04/29 13:28:10;;;;;;;2.30;1.63;;;;;;;;;;4995512;28;20183;-73
2023/04/29 13:31:14;;;;;;;4.07;3.60;;;;;;;;;;4995118;28;20214;-73
2023/04/29 13:34:19;;;;;;;1.50;1.40;;;;;;;;;;4995443;28;20183;-73
2023/04/29 13:37:23;;;;;;;1.40;1.17;;;;;;;;;;4995504;28;20625;-73
2023/04/29 13:40:27;;;;;;;1.83;1.30;;;;;;;;;;4995335;28;20187;-73
2023/04/29 13:43:31;;;;;;;3.17;1.17;;;;;;;;;;4995799;28;20631;-73
2023/04/29 13:46:36;;;;;;;1.57;1.17;;;;;;;;;;4983196;28;20209;-73
2023/04/29 13:49:40;;;;;;;1.67;1.20;;;;;;;;;;4995204;28;20207;-74
2023/04/29 13:52:44;;;;;;;1.10;1.00;;;;;;;;;;4995325;28;20218;-73
2023/04/29 13:55:48;;;;;;;1.57;1.10;;;;;;;;;;4994764;28;20202;-73
2023/04/29 13:58:52;;;;;;;1.60;1.50;;;;;;;;;;4994938;28;20202;-74
2023/04/29 14:01:58;;;;;;;8.60;2.40;;;;;;;;;;4983009;28;20217;-73
2023/04/29 14:05:02;;;;;;;5.60;4.23;;;;;;;;;;4995308;28;20182;-73
2023/04/29 14:08:06;;;;;;;2.57;2.37;;;;;;;;;;4983149;28;20210;-73
2023/04/29 14:11:11;;;;;;;5.33;1.90;;;;;;;;;;4995179;28;20210;-73
2023/04/29 14:14:16;;;;;;;1.90;1.40;;;;;;;;;;4994616;28;20194;-73
2023/04/29 14:17:20;;;;;;;2.03;1.40;;;;;;;;;;4972081;28;20182;-73
2023/04/29 14:20:24;;;;;;;2.40;1.83;;;;;;;;;;4994587;28;20182;-73
2023/04/29 14:23:28;;;;;;;2.47;1.90;;;;;;;;;;4994534;28;20248;-73
2023/04/29 14:26:32;;;;;;;2.27;1.97;;;;;;;;;;4994849;28;20221;-73
2023/04/29 14:29:36;;;;;;;2.20;2.00;;;;;;;;;;4982677;28;20187;-73
2023/04/29 14:32:40;;;;;;;5.20;1.80;;;;;;;;;;4994247;28;20222;-73
2023/04/29 14:35:45;;;;;;;2.47;1.80;;;;;;;;;;4994528;28;20182;-73
2023/04/29 14:38:49;;;;;;;3.63;1.93;;;;;;;;;;4994756;28;20174;-73
2023/04/29 14:41:52;;;;;;;2.07;1.90;;;;;;;;;;4993830;28;20221;-73
2023/04/29 14:44:56;;;;;;;2.33;2.00;;;;;;;;;;4994412;28;20183;-73
2023/04/29 14:48:01;;;;;;;2.73;1.97;;;;;;;;;;4994565;28;20206;-73
2023/04/29 14:51:06;;;;;;;2.40;2.20;;;;;;;;;;4994209;28;20213;-73
2023/04/29 14:54:11;;;;;;;2.70;2.50;;;;;;;;;;4982600;28;20179;-73
2023/04/29 14:57:15;;;;;;;4.60;2.53;;;;;;;;;;4994208;28;20511;-73
2023/04/29 15:00:20;;;;;;;3.07;2.73;;;;;;;;;;4982537;28;20178;-73
2023/04/29 15:03:24;;;;;;;2.70;2.50;;;;;;;;;;4982198;28;20182;-74
2023/04/29 15:06:29;;;;;;;3.17;2.40;;;;;;;;;;4994198;28;20182;-73
2023/04/29 15:09:33;;;;;;;2.97;2.33;;;;;;;;;;4993782;28;20178;-73
2023/04/29 15:12:38;;;;;;;5.97;2.60;;;;;;;;;;4994528;28;20214;-73
2023/04/29 15:15:42;;;;;;;2.60;2.40;;;;;;;;;;4994059;28;20178;-73
2023/04/29 15:18:46;;;;;;;2.63;2.10;;;;;;;;;;4993885;28;20622;-73
2023/04/29 15:21:51;;;;;;;2.60;2.40;;;;;;;;;;4993786;28;20582;-73
2023/04/29 15:24:55;;;;;;;4.27;2.10;;;;;;;;;;4982009;28;20179;-73
2023/04/29 15:28:00;;;;;;;2.70;2.50;;;;;;;;;;4993733;28;20669;-73
2023/04/29 15:31:04;;;;;;;3.53;2.80;;;;;;;;;;4981544;28;20217;-73
2023/04/29 15:34:09;;;;;;;2.93;2.53;;;;;;;;;;4993730;28;20182;-73
2023/04/29 15:37:13;;;;;;;3.10;2.30;;;;;;;;;;4993582;28;20182;-73
2023/04/29 15:40:18;;;;;;;7.23;2.50;;;;;;;;;;4993749;28;20198;-73
2023/04/29 15:43:22;;;;;;;3.63;2.53;;;;;;;;;;4993630;28;20198;-73
2023/04/29 15:46:29;;;;;;;4.07;2.57;;;;;;;;;;4993638;28;20182;-73
2023/04/29 15:49:33;;;;;;;4.07;2.87;;;;;;;;;;4993462;28;20202;-73
2023/04/29 15:52:37;;;;;;;3.37;2.60;;;;;;;;;;4993591;28;20693;-73
2023/04/29 15:55:41;;;;;;;3.17;2.87;;;;;;;;;;4993563;28;20201;-73
2023/04/29 15:58:45;;;;;;;5.50;3.00;;;;;;;;;;4981496;28;20194;-73
2023/04/29 16:01:49;;;;;;;3.77;3.20;;;;;;;;;;4993317;28;20214;-73
2023/04/29 16:04:53;;;;;;;4.17;3.40;;;;;;;;;;4993346;28;20186;-73
2023/04/29 16:07:57;;;;;;;3.20;2.90;;;;;;;;;;4993402;28;20206;-73
2023/04/29 16:11:01;;;;;;;4.77;2.40;;;;;;;;;;4993715;28;20561;-73
2023/04/29 16:14:06;;;;;;;4.10;2.83;;;;;;;;;;4993500;28;20186;-74
2023/04/29 16:17:10;;;;;;;3.37;3.00;;;;;;;;;;4993206;28;20198;-73
2023/04/29 16:20:16;;;;;;;5.27;3.17;;;;;;;;;;4996216;28;20182;-73
2023/04/29 16:23:19;;;;;;;3.90;3.20;;;;;;;;;;4985053;28;20178;-73
2023/04/29 16:26:24;;;;;;;4.40;3.37;;;;;;;;;;4996671;28;20641;-73
2023/04/29 16:29:28;;;;;;;4.97;3.87;;;;;;;;;;4996526;28;20170;-73
2023/04/29 16:32:33;;;;;;;4.30;3.70;;;;;;;;;;4984514;28;20222;-73
2023/04/29 16:35:37;;;;;;;5.00;3.80;;;;;;;;;;4996425;28;20182;-73
2023/04/29 16:38:41;;;;;;;4.17;3.23;;;;;;;;;;4984851;28;20190;-73
2023/04/29 16:41:45;;;;;;;5.13;3.13;;;;;;;;;;4996532;28;20716;-73
2023/04/29 16:44:50;;;;;;;8.03;3.57;;;;;;;;;;4996354;28;20645;-73
2023/04/29 16:47:54;;;;;;;3.50;3.20;;;;;;;;;;4984215;28;20206;-73
2023/04/29 16:50:58;;;;;;;5.33;2.70;;;;;;;;;;4996162;28;20692;-73
2023/04/29 16:54:03;;;;;;;5.57;3.10;;;;;;;;;;4996213;28;20198;-73
2023/04/29 16:57:06;;;;;;;3.50;2.80;;;;;;;;;;4983941;28;20201;-73
2023/04/29 17:00:11;;;;;;;3.17;2.90;;;;;;;;;;4996158;28;20198;-73
2023/04/29 17:03:15;;;;;;;3.50;3.20;;;;;;;;;;4996192;28;20534;-73
2023/04/29 17:06:19;;;;;;;6.63;3.40;;;;;;;;;;4996062;28;20178;-73
2023/04/29 17:09:24;;;;;;;4.33;3.10;;;;;;;;;;4996297;28;20178;-73
2023/04/29 17:12:29;;;;;;;4.07;2.90;;;;;;;;;;4995637;28;20222;-73
2023/04/29 17:15:32;;;;;;;2.97;2.53;;;;;;;;;;4983981;28;20182;-73
2023/04/29 17:18:37;;;;;;;5.30;2.80;;;;;;;;;;4995555;28;20178;-73
2023/04/29 17:21:41;;;;;;;4.30;2.80;;;;;;;;;;4995184;28;20214;-73
2023/04/29 17:24:45;;;;;;;3.90;2.57;;;;;;;;;;4995871;28;20179;-73
2023/04/29 17:27:49;;;;;;;3.70;3.10;;;;;;;;;;4995549;28;20206;-73
2023/04/29 17:30:58;;;;;;;3.73;3.03;;;;;;;;;;4994983;28;20178;-73
2023/04/29 17:34:17;;;;;;;3.70;2.47;;;;;;;;;;4983430;28;20190;-73
2023/04/29 17:37:24;;;;;;;3.70;2.97;;;;;;;;;;4995188;28;20542;-72
2023/04/29 17:40:28;;;;;;;5.10;2.80;;;;;;;;;;4995360;28;20182;-73
2023/04/29 17:43:34;;;;;;;3.33;2.83;;;;;;;;;;4995336;28;20186;-73
2023/04/29 17:46:39;;;;;;;3.87;2.93;;;;;;;;;;4983070;28;20202;-73
2023/04/29 17:49:43;;;;;;;3.67;2.90;;;;;;;;;;4983022;28;20197;-73
2023/04/29 17:52:47;;;;;;;3.53;3.03;;;;;;;;;;4995201;28;20221;-73
2023/04/29 17:55:51;;;;;;;3.43;2.87;;;;;;;;;;4972291;28;20182;-73
2023/04/29 17:58:55;;;;;;;4.27;3.30;;;;;;;;;;4994944;28;20174;-73
2023/04/29 18:02:00;;;;;;;3.67;3.07;;;;;;;;;;4982934;28;20218;-73
2023/04/29 18:05:04;;;;;;;3.80;2.80;;;;;;;;;;4971727;28;20198;-73
2023/04/29 18:08:08;;;;;;;3.53;2.90;;;;;;;;;;4994542;28;20225;-73
2023/04/29 18:11:12;;;;;;;3.33;2.63;;;;;;;;;;4994703;28;20218;-73
2023/04/29 18:14:16;;;;;;;3.40;2.70;;;;;;;;;;4982750;28;20182;-73
2023/04/29 18:17:20;;;;;;;2.70;2.37;;;;;;;;;;4982786;28;20182;-73
2023/04/29 18:20:25;;;;;;;10.40;2.63;;;;;;;;;;4994450;28;20618;-73
2023/04/29 18:23:29;;;;;;;4.47;2.43;;;;;;;;;;4994756;28;20653;-73
2023/04/29 18:26:32;;;;;;;3.63;2.40;;;;;;;;;;4982625;28;20182;-73
2023/04/29 18:29:37;;;;;;;2.97;2.50;;;;;;;;;;4994101;28;20226;-72
2023/04/29 18:32:41;;;;;;;3.37;2.50;;;;;;;;;;4993568;28;20221;-73
2023/04/29 18:35:45;;;;;;;4.30;3.50;;;;;;;;;;4994430;28;20182;-73
2023/04/29 18:38:49;;;;;;;10.37;7.63;;;;;;;;;;4994467;28;20174;-73